createdAt,value
2017-12-13T00:00:08.899Z,2.20
2017-12-13T00:02:37.902Z,2.20
2017-12-13T00:05:06.156Z,2.10
2017-12-13T00:07:35.247Z,2.10
2017-12-13T00:10:03.428Z,2.10
2017-12-13T00:12:31.644Z,2.10
2017-12-13T00:14:59.876Z,2.10
2017-12-13T00:17:28.089Z,2.10
2017-12-13T00:19:56.326Z,2.10
2017-12-13T00:22:32.165Z,2.10
2017-12-13T00:25:00.405Z,2.00
2017-12-13T00:27:28.628Z,2.10
2017-12-13T00:29:57.637Z,2.10
2017-12-13T00:32:25.870Z,2.10
2017-12-13T00:34:54.122Z,2.10
2017-12-13T00:37:22.356Z,2.10
2017-12-13T00:39:51.343Z,2.20
2017-12-13T00:42:19.566Z,2.10
2017-12-13T00:44:47.794Z,2.20
2017-12-13T00:47:16.794Z,2.20
2017-12-13T00:49:45.039Z,2.10
2017-12-13T00:52:14.359Z,2.20
2017-12-13T00:54:43.334Z,2.20
2017-12-13T00:57:11.564Z,2.20
2017-12-13T00:59:39.797Z,2.30
2017-12-13T01:02:08.041Z,2.30
2017-12-13T01:04:36.270Z,2.40
2017-12-13T01:07:04.490Z,2.50
2017-12-13T01:09:32.747Z,2.50
2017-12-13T01:12:01.081Z,2.60
2017-12-13T01:14:29.685Z,2.70
2017-12-13T01:16:58.667Z,2.90
2017-12-13T01:19:26.912Z,2.80
2017-12-13T01:21:55.140Z,3.00
2017-12-13T01:24:23.428Z,3.10
2017-12-13T01:26:51.654Z,3.20
2017-12-13T01:29:19.917Z,3.10
2017-12-13T01:31:48.141Z,3.10
2017-12-13T01:34:16.392Z,3.00
2017-12-13T01:36:44.626Z,2.90
2017-12-13T01:39:12.852Z,2.80
2017-12-13T01:41:41.090Z,2.70
2017-12-13T01:44:09.330Z,2.60
2017-12-13T01:46:37.856Z,2.60
2017-12-13T01:49:06.848Z,2.50
2017-12-13T01:51:35.855Z,2.50
2017-12-13T01:54:04.076Z,2.50
2017-12-13T01:56:32.317Z,2.60
2017-12-13T01:59:00.591Z,2.70
2017-12-13T02:01:28.815Z,2.80
2017-12-13T02:03:57.043Z,2.90
2017-12-13T02:06:25.303Z,3.00
2017-12-13T02:08:54.281Z,3.30
2017-12-13T02:11:23.585Z,3.40
2017-12-13T02:13:51.827Z,3.30
2017-12-13T02:16:20.053Z,3.40
2017-12-13T02:18:48.290Z,3.50
2017-12-13T02:21:16.510Z,3.50
2017-12-13T02:23:44.756Z,3.60
2017-12-13T02:26:12.971Z,3.60
2017-12-13T02:28:41.208Z,3.70
2017-12-13T02:31:10.196Z,3.70
2017-12-13T02:33:38.441Z,3.60
2017-12-13T02:36:06.667Z,3.70
2017-12-13T02:38:34.885Z,3.60
2017-12-13T02:41:03.093Z,3.70
2017-12-13T02:43:32.084Z,3.60
2017-12-13T02:46:01.091Z,3.60
2017-12-13T02:48:29.327Z,3.50
2017-12-13T02:50:57.562Z,3.50
2017-12-13T02:53:25.781Z,3.30
2017-12-13T02:55:54.006Z,3.20
2017-12-13T02:58:22.238Z,3.10
2017-12-13T03:00:50.466Z,3.00
2017-12-13T03:03:18.718Z,3.00
2017-12-13T03:05:46.926Z,2.90
2017-12-13T03:08:15.166Z,2.80
2017-12-13T03:10:43.391Z,2.80
2017-12-13T03:13:11.702Z,2.70
2017-12-13T03:15:40.181Z,2.70
2017-12-13T03:18:09.170Z,2.70
2017-12-13T03:20:38.149Z,2.60
2017-12-13T03:23:06.614Z,2.60
2017-12-13T03:25:34.835Z,2.60
2017-12-13T03:28:03.066Z,2.60
2017-12-13T03:30:31.290Z,2.50
2017-12-13T03:32:59.542Z,2.50
2017-12-13T03:35:28.534Z,2.40
2017-12-13T03:37:57.517Z,2.40
2017-12-13T03:40:25.751Z,2.30
2017-12-13T03:42:53.975Z,2.40
2017-12-13T03:45:22.969Z,2.30
2017-12-13T03:47:51.951Z,2.30
2017-12-13T03:50:20.188Z,2.30
2017-12-13T03:52:48.411Z,2.30
2017-12-13T03:55:17.403Z,2.20
2017-12-13T03:57:46.397Z,2.20
2017-12-13T04:00:14.615Z,2.10
2017-12-13T04:02:42.848Z,2.20
2017-12-13T04:05:11.091Z,2.10
2017-12-13T04:07:39.323Z,2.20
2017-12-13T04:10:07.530Z,2.10
2017-12-13T04:12:36.613Z,2.10
2017-12-13T04:15:04.887Z,2.10
2017-12-13T04:17:33.113Z,2.10
2017-12-13T04:20:02.093Z,2.10
2017-12-13T04:22:30.351Z,2.00
2017-12-13T04:24:59.320Z,2.00
2017-12-13T04:27:27.775Z,1.90
2017-12-13T04:29:56.002Z,2.00
2017-12-13T04:32:24.284Z,2.00
2017-12-13T04:34:52.434Z,2.00
2017-12-13T04:37:20.724Z,2.00
2017-12-13T04:39:48.979Z,2.00
2017-12-13T04:42:17.197Z,2.00
2017-12-13T04:44:45.426Z,2.00
2017-12-13T04:47:13.654Z,2.00
2017-12-13T04:49:42.655Z,2.00
2017-12-13T04:52:10.888Z,2.00
2017-12-13T04:54:39.106Z,2.00
2017-12-13T04:57:07.322Z,2.00
2017-12-13T04:59:35.550Z,2.00
2017-12-13T05:02:03.770Z,2.10
2017-12-13T05:04:32.021Z,2.10
2017-12-13T05:07:00.238Z,2.10
2017-12-13T05:09:28.483Z,2.10
2017-12-13T05:11:56.700Z,2.10
2017-12-13T05:14:24.914Z,2.10
2017-12-13T05:16:53.143Z,2.10
2017-12-13T05:19:21.402Z,2.10
2017-12-13T05:21:49.622Z,2.10
2017-12-13T05:24:17.871Z,2.10
2017-12-13T05:26:47.194Z,2.20
2017-12-13T05:29:15.425Z,2.20
2017-12-13T05:31:44.457Z,2.30
2017-12-13T05:34:12.698Z,2.30
2017-12-13T05:36:40.931Z,2.30
2017-12-13T05:39:09.175Z,2.30
2017-12-13T05:41:38.171Z,2.30
2017-12-13T05:44:07.158Z,2.30
2017-12-13T05:46:35.409Z,2.30
2017-12-13T05:49:03.610Z,2.30
2017-12-13T05:51:32.624Z,2.40
2017-12-13T05:54:00.839Z,2.30
2017-12-13T05:56:29.061Z,2.30
2017-12-13T05:58:58.061Z,2.30
2017-12-13T06:01:26.504Z,2.20
2017-12-13T06:03:54.731Z,2.30
2017-12-13T06:06:22.957Z,2.20
2017-12-13T06:08:51.181Z,2.20
2017-12-13T06:11:19.396Z,2.20
2017-12-13T06:13:47.901Z,2.20
2017-12-13T06:16:16.894Z,2.20
2017-12-13T06:18:45.110Z,2.10
2017-12-13T06:24:11.431Z,2.20
2017-12-13T06:26:39.654Z,2.20
2017-12-13T06:29:07.874Z,2.20
2017-12-13T06:31:36.884Z,2.20
2017-12-13T06:34:05.108Z,2.10
2017-12-13T06:39:31.355Z,2.20
2017-12-13T06:41:59.595Z,2.20
2017-12-13T06:44:27.826Z,2.20
2017-12-13T06:46:56.846Z,2.20
2017-12-13T06:49:25.083Z,2.20
2017-12-13T06:51:53.314Z,2.30
2017-12-13T06:54:22.365Z,2.30
2017-12-13T06:56:51.454Z,2.30
2017-12-13T07:02:17.256Z,2.30
2017-12-13T07:04:45.515Z,2.40
2017-12-13T07:07:14.151Z,2.40
2017-12-13T07:09:42.414Z,2.40
2017-12-13T07:12:10.638Z,2.50
2017-12-13T07:14:38.890Z,2.50
2017-12-13T07:17:07.128Z,2.50
2017-12-13T07:19:35.361Z,2.50
2017-12-13T07:22:03.586Z,2.50
2017-12-13T07:24:32.598Z,2.50
2017-12-13T07:27:01.593Z,2.50
2017-12-13T07:29:30.598Z,2.40
2017-12-13T07:31:58.820Z,2.40
2017-12-13T07:34:27.050Z,2.40
2017-12-13T07:36:55.263Z,2.40
2017-12-13T07:39:23.822Z,2.40
2017-12-13T07:41:52.047Z,2.40
2017-12-13T07:44:20.261Z,2.50
2017-12-13T07:46:48.517Z,2.40
2017-12-13T07:49:17.487Z,2.40
2017-12-13T07:51:45.739Z,2.40
2017-12-13T07:54:13.950Z,2.40
2017-12-13T07:56:42.187Z,2.40
2017-12-13T07:59:10.527Z,2.50
2017-12-13T08:01:39.411Z,2.50
2017-12-13T08:04:08.491Z,2.50
2017-12-13T08:06:36.698Z,2.40
2017-12-13T08:12:04.557Z,2.50
2017-12-13T08:14:32.801Z,2.60
2017-12-13T08:17:01.027Z,2.50
2017-12-13T08:19:29.250Z,2.60
2017-12-13T08:21:58.274Z,2.60
2017-12-13T08:24:26.499Z,2.60
2017-12-13T08:26:54.758Z,2.70
2017-12-13T08:29:22.986Z,2.70
2017-12-13T08:31:51.974Z,2.80
2017-12-13T08:34:21.001Z,2.80
2017-12-13T08:36:49.197Z,2.80
2017-12-13T08:39:17.427Z,2.90
2017-12-13T08:41:46.424Z,3.00
2017-12-13T08:44:14.677Z,3.00
2017-12-13T08:46:42.882Z,3.10
2017-12-13T08:49:11.159Z,3.10
2017-12-13T08:51:40.154Z,3.20
2017-12-13T08:54:08.382Z,3.20
2017-12-13T08:56:36.603Z,3.20
2017-12-13T08:59:04.859Z,3.30
2017-12-13T09:01:33.855Z,3.40
2017-12-13T09:04:02.116Z,3.40
2017-12-13T09:06:30.318Z,3.40
2017-12-13T09:08:58.539Z,3.50
2017-12-13T09:11:26.783Z,3.60
2017-12-13T09:13:55.032Z,3.60
2017-12-13T09:16:24.029Z,3.90
2017-12-13T09:18:52.262Z,3.80
2017-12-13T09:21:20.507Z,3.90
2017-12-13T09:23:48.715Z,4.00
2017-12-13T09:26:16.990Z,4.10
2017-12-13T09:28:45.996Z,4.30
2017-12-13T09:31:14.254Z,4.20
2017-12-13T09:33:42.500Z,4.30
2017-12-13T09:36:10.731Z,4.40
2017-12-13T09:38:39.715Z,4.60
2017-12-13T09:41:07.936Z,4.60
2017-12-13T09:43:36.163Z,4.70
2017-12-13T09:46:05.151Z,4.80
2017-12-13T09:48:34.247Z,4.90
2017-12-13T09:51:03.930Z,4.90
2017-12-13T09:53:32.206Z,4.90
2017-12-13T09:56:00.414Z,5.00
2017-12-13T09:58:28.666Z,5.00
2017-12-13T10:00:56.893Z,5.10
2017-12-13T10:03:25.185Z,5.00
2017-12-13T10:05:53.388Z,5.00
2017-12-13T10:08:21.637Z,5.10
2017-12-13T10:10:49.862Z,5.10
2017-12-13T10:13:18.882Z,5.10
2017-12-13T10:15:47.090Z,5.10
2017-12-13T10:18:15.314Z,5.10
2017-12-13T10:20:43.607Z,5.10
2017-12-13T10:23:11.823Z,5.10
2017-12-13T10:25:40.075Z,5.10
2017-12-13T10:28:08.306Z,5.10
2017-12-13T10:30:37.298Z,5.20
2017-12-13T10:33:05.775Z,5.10
2017-12-13T10:35:34.772Z,5.30
2017-12-13T10:38:04.668Z,5.30
2017-12-13T10:40:33.707Z,5.30
2017-12-13T10:43:01.962Z,5.30
2017-12-13T10:45:30.187Z,5.30
2017-12-13T10:47:58.430Z,5.30
2017-12-13T10:50:26.680Z,5.30
2017-12-13T10:52:54.931Z,5.20
2017-12-13T10:55:23.934Z,5.30
2017-12-13T10:57:52.946Z,5.20
2017-12-13T11:00:21.205Z,5.20
2017-12-13T11:02:49.409Z,5.20
2017-12-13T11:05:18.373Z,5.20
2017-12-13T11:07:47.381Z,5.10
2017-12-13T11:10:17.262Z,5.10
2017-12-13T11:12:45.510Z,5.10
2017-12-13T11:15:13.747Z,5.10
2017-12-13T11:17:41.992Z,5.10
2017-12-13T11:20:10.215Z,5.10
2017-12-13T11:22:38.481Z,5.10
2017-12-13T11:25:06.722Z,5.10
2017-12-13T11:27:34.960Z,5.20
2017-12-13T11:30:03.193Z,5.20
2017-12-13T11:32:31.454Z,5.30
2017-12-13T11:34:59.659Z,5.40
2017-12-13T11:37:27.885Z,5.50
2017-12-13T11:39:56.114Z,5.60
2017-12-13T11:42:24.360Z,5.70
2017-12-13T11:44:52.590Z,5.80
2017-12-13T11:47:20.831Z,5.80
2017-12-13T11:49:49.089Z,5.80
2017-12-13T11:52:18.095Z,5.90
2017-12-13T11:54:47.099Z,5.80
2017-12-13T11:57:15.318Z,5.90
2017-12-13T11:59:43.547Z,5.90
2017-12-13T12:02:11.798Z,5.80
2017-12-13T12:04:40.802Z,5.90
2017-12-13T12:07:09.028Z,5.80
2017-12-13T12:09:37.301Z,5.90
2017-12-13T12:12:05.572Z,5.80
2017-12-13T12:14:33.797Z,5.80
2017-12-13T12:17:02.045Z,5.80
2017-12-13T12:19:31.068Z,5.80
2017-12-13T12:21:59.299Z,5.80
2017-12-13T12:24:27.570Z,5.80
2017-12-13T12:26:56.586Z,5.90
2017-12-13T12:29:24.852Z,5.80
2017-12-13T12:31:53.853Z,6.00
2017-12-13T12:34:22.123Z,6.00
2017-12-13T12:36:51.128Z,6.10
2017-12-13T12:39:19.430Z,6.00
2017-12-13T12:41:47.670Z,6.10
2017-12-13T12:44:15.950Z,6.10
2017-12-13T12:46:44.146Z,6.10
2017-12-13T12:49:12.376Z,6.00
2017-12-13T12:51:40.606Z,6.00
2017-12-13T12:54:08.904Z,6.00
2017-12-13T12:56:37.228Z,5.90
2017-12-13T12:59:06.223Z,5.90
2017-12-13T13:01:35.222Z,6.00
2017-12-13T13:04:03.457Z,5.90
2017-12-13T13:06:31.729Z,6.00
2017-12-13T13:08:59.973Z,6.00
2017-12-13T13:11:28.231Z,6.00
2017-12-13T13:13:56.458Z,6.00
2017-12-13T13:16:24.684Z,6.00
2017-12-13T13:18:52.935Z,6.00
2017-12-13T13:21:21.930Z,6.00
2017-12-13T13:23:50.170Z,5.90
2017-12-13T13:26:18.410Z,6.00
2017-12-13T13:28:46.662Z,6.00
2017-12-13T13:31:14.898Z,6.00
2017-12-13T13:33:43.125Z,6.00
2017-12-13T13:36:11.375Z,6.00
2017-12-13T13:38:40.396Z,6.00
2017-12-13T13:43:43.311Z,6.00
2017-12-13T13:46:11.534Z,6.00
2017-12-13T13:48:40.536Z,5.90
2017-12-13T13:51:08.792Z,5.90
2017-12-13T13:53:37.813Z,5.80
2017-12-13T13:56:06.018Z,5.70
2017-12-13T13:58:34.235Z,5.70
2017-12-13T14:01:03.269Z,5.50
2017-12-13T14:03:31.516Z,5.50
2017-12-13T14:05:59.803Z,5.50
2017-12-13T14:08:28.038Z,5.50
2017-12-13T14:10:56.251Z,5.50
2017-12-13T14:13:24.470Z,5.50
2017-12-13T14:15:52.724Z,5.50
2017-12-13T14:18:20.963Z,5.50
2017-12-13T14:20:49.955Z,5.40
2017-12-13T14:23:18.183Z,5.40
2017-12-13T14:25:46.418Z,5.40
2017-12-13T14:28:14.670Z,5.30
2017-12-13T14:30:43.686Z,5.30
2017-12-13T14:33:12.678Z,5.20
2017-12-13T14:35:40.914Z,5.20
2017-12-13T14:38:09.150Z,5.20
2017-12-13T14:40:37.386Z,5.10
2017-12-13T14:43:06.392Z,5.10
2017-12-13T14:45:34.631Z,5.00
2017-12-13T14:48:02.862Z,5.10
2017-12-13T14:50:31.926Z,5.00
2017-12-13T14:53:00.220Z,5.00
2017-12-13T14:55:29.204Z,5.00
2017-12-13T14:57:58.189Z,4.90
2017-12-13T15:00:26.508Z,4.80
2017-12-13T15:02:54.732Z,4.80
2017-12-13T15:05:23.045Z,4.80
2017-12-13T15:07:51.206Z,4.70
2017-12-13T15:10:20.203Z,4.70
2017-12-13T15:12:48.461Z,4.60
2017-12-13T15:15:17.481Z,4.70
2017-12-13T15:17:45.726Z,4.60
2017-12-13T15:20:14.715Z,4.70
2017-12-13T15:22:43.740Z,4.70
2017-12-13T15:25:11.962Z,4.60
2017-12-13T15:27:40.208Z,4.60
2017-12-13T15:30:09.256Z,4.60
2017-12-13T15:32:38.266Z,4.60
2017-12-13T15:35:06.511Z,4.50
2017-12-13T15:37:35.822Z,4.50
2017-12-13T15:40:04.059Z,4.50
2017-12-13T15:42:32.331Z,4.60
2017-12-13T15:45:00.554Z,4.50
2017-12-13T15:47:28.800Z,4.50
2017-12-13T15:49:57.915Z,4.50
2017-12-13T15:52:26.211Z,4.50
2017-12-13T15:54:54.436Z,4.50
2017-12-13T15:57:22.666Z,4.50
2017-12-13T15:59:50.915Z,4.50
2017-12-13T16:02:19.910Z,4.50
2017-12-13T16:04:48.169Z,4.50
2017-12-13T16:07:16.391Z,4.40
2017-12-13T16:09:44.643Z,4.40
2017-12-13T16:12:13.625Z,4.40
2017-12-13T16:14:42.631Z,4.40
2017-12-13T16:17:11.105Z,4.30
2017-12-13T16:19:40.125Z,4.30
2017-12-13T16:22:08.350Z,4.30
2017-12-13T16:24:37.367Z,4.30
2017-12-13T16:27:05.616Z,4.20
2017-12-13T16:29:33.842Z,4.30
2017-12-13T16:32:02.311Z,4.30
2017-12-13T16:34:30.551Z,4.30
2017-12-13T16:36:59.569Z,4.30
2017-12-13T16:39:27.830Z,4.30
2017-12-13T16:41:56.870Z,4.40
2017-12-13T16:44:25.106Z,4.30
2017-12-13T16:46:53.359Z,4.40
2017-12-13T16:49:22.385Z,4.40
2017-12-13T16:51:51.361Z,4.40
2017-12-13T16:54:20.372Z,4.50
2017-12-13T16:56:48.603Z,4.40
2017-12-13T16:59:16.874Z,4.40
2017-12-13T17:01:45.110Z,4.40
2017-12-13T17:04:13.566Z,4.40
2017-12-13T17:06:42.542Z,4.40
2017-12-13T17:09:11.558Z,4.40
2017-12-13T17:11:40.838Z,4.30
2017-12-13T17:14:09.852Z,4.30
2017-12-13T17:16:38.075Z,4.30
2017-12-13T17:19:06.327Z,4.30
2017-12-13T17:21:34.623Z,4.30
2017-12-13T17:24:02.846Z,4.30
2017-12-13T17:26:31.092Z,4.30
2017-12-13T17:29:00.110Z,4.30
2017-12-13T17:31:28.582Z,4.30
2017-12-13T17:33:56.790Z,4.30
2017-12-13T17:36:25.005Z,4.30
2017-12-13T17:38:53.210Z,4.30
2017-12-13T17:41:22.590Z,4.20
2017-12-13T17:43:50.822Z,4.20
2017-12-13T17:46:19.055Z,4.20
2017-12-13T17:48:47.455Z,4.20
2017-12-13T17:51:16.437Z,4.20
2017-12-13T17:53:44.710Z,4.10
2017-12-13T17:56:13.083Z,4.20
2017-12-13T17:58:41.318Z,4.20
2017-12-13T18:01:09.782Z,4.20
2017-12-13T18:03:38.053Z,4.20
2017-12-13T18:06:06.343Z,4.20
2017-12-13T18:08:34.753Z,4.20
2017-12-13T18:11:03.074Z,4.30
2017-12-13T18:13:31.318Z,4.30
2017-12-13T18:16:00.307Z,4.30
2017-12-13T18:18:29.319Z,4.40
2017-12-13T18:20:57.546Z,4.30
2017-12-13T18:23:25.757Z,4.40
2017-12-13T18:25:54.069Z,4.50
2017-12-13T18:28:25.042Z,4.60
2017-12-13T18:30:53.272Z,4.60
2017-12-13T18:33:22.415Z,4.70
2017-12-13T18:35:51.538Z,4.70
2017-12-13T18:38:19.806Z,4.60
2017-12-13T18:40:48.039Z,4.60
2017-12-13T18:43:16.262Z,4.60
2017-12-13T18:45:45.349Z,4.70
2017-12-13T18:48:13.537Z,4.60
2017-12-13T18:50:41.747Z,4.60
2017-12-13T18:53:10.004Z,4.60
2017-12-13T18:55:38.251Z,4.50
2017-12-13T18:58:06.515Z,4.50
2017-12-13T19:00:35.539Z,4.50
2017-12-13T19:03:03.805Z,4.50
2017-12-13T19:05:32.171Z,4.60
2017-12-13T19:08:01.159Z,4.60
2017-12-13T19:10:30.155Z,4.70
2017-12-13T19:12:59.156Z,4.70
2017-12-13T19:15:28.191Z,4.70
2017-12-13T19:17:56.413Z,4.70
2017-12-13T19:20:25.394Z,4.80
2017-12-13T19:22:53.590Z,4.80
2017-12-13T19:25:21.844Z,4.90
2017-12-13T19:27:50.067Z,4.90
2017-12-13T19:30:18.306Z,4.90
2017-12-13T19:32:46.542Z,4.90
2017-12-13T19:35:14.780Z,4.90
2017-12-13T19:37:43.003Z,4.90
2017-12-13T19:40:11.239Z,4.90
2017-12-13T19:42:39.472Z,4.90
2017-12-13T19:45:08.679Z,5.00
2017-12-13T19:47:36.834Z,4.90
2017-12-13T19:50:05.213Z,5.00
2017-12-13T19:52:33.432Z,5.00
2017-12-13T19:55:01.708Z,5.00
2017-12-13T19:57:29.933Z,5.00
2017-12-13T19:59:59.028Z,5.00
2017-12-13T20:02:27.253Z,5.00
2017-12-13T20:04:55.486Z,5.00
2017-12-13T20:07:23.796Z,4.90
2017-12-13T20:09:52.024Z,4.90
2017-12-13T20:12:20.250Z,4.80
2017-12-13T20:14:48.475Z,4.70
2017-12-13T20:17:16.699Z,4.60
2017-12-13T20:19:44.920Z,4.60
2017-12-13T20:22:13.158Z,4.50
2017-12-13T20:24:41.350Z,4.40
2017-12-13T20:27:09.563Z,4.40
2017-12-13T20:29:38.546Z,4.40
2017-12-13T20:32:07.546Z,4.40
2017-12-13T20:34:36.545Z,4.40
2017-12-13T20:37:04.770Z,4.40
2017-12-13T20:39:33.840Z,4.50
2017-12-13T20:42:03.106Z,4.50
2017-12-13T20:44:32.115Z,4.50
2017-12-13T20:47:00.334Z,4.40
2017-12-13T20:49:28.566Z,4.40
2017-12-13T20:51:56.800Z,4.40
2017-12-13T20:54:25.065Z,4.40
2017-12-13T20:56:53.278Z,4.50
2017-12-13T20:59:22.278Z,4.60
2017-12-13T21:01:51.262Z,4.60
2017-12-13T21:04:19.493Z,4.70
2017-12-13T21:06:47.730Z,4.70
2017-12-13T21:09:15.954Z,4.70
2017-12-13T21:11:44.177Z,4.70
2017-12-13T21:14:13.243Z,4.80
2017-12-13T21:16:42.248Z,4.80
2017-12-13T21:19:10.510Z,4.80
2017-12-13T21:21:38.747Z,4.80
2017-12-13T21:24:07.030Z,4.90
2017-12-13T21:26:35.294Z,5.00
2017-12-13T21:29:03.554Z,5.10
2017-12-13T21:31:31.759Z,5.10
2017-12-13T21:34:00.016Z,5.20
2017-12-13T21:36:28.292Z,5.20
2017-12-13T21:38:56.517Z,5.20
2017-12-13T21:41:25.509Z,5.20
2017-12-13T21:43:53.711Z,5.10
2017-12-13T21:46:21.942Z,5.20
2017-12-13T21:48:50.187Z,5.20
2017-12-13T21:51:18.482Z,5.20
2017-12-13T21:53:46.699Z,5.20
2017-12-13T21:56:15.098Z,5.20
2017-12-13T21:58:43.306Z,5.30
2017-12-13T22:01:11.542Z,5.30
2017-12-13T22:03:39.817Z,5.30
2017-12-13T22:06:08.794Z,5.20
2017-12-13T22:08:37.758Z,5.20
2017-12-13T22:11:05.975Z,5.10
2017-12-13T22:13:34.230Z,5.10
2017-12-13T22:16:02.460Z,5.10
2017-12-13T22:18:30.689Z,5.10
2017-12-13T22:20:58.955Z,5.10
2017-12-13T22:23:27.195Z,5.00
2017-12-13T22:25:55.414Z,5.00
2017-12-13T22:28:23.639Z,5.00
2017-12-13T22:30:51.851Z,5.00
2017-12-13T22:33:20.090Z,5.00
2017-12-13T22:35:48.330Z,5.00
2017-12-13T22:38:16.555Z,5.00
2017-12-13T22:40:44.788Z,5.00
2017-12-13T22:43:13.007Z,4.90
2017-12-13T22:45:41.228Z,4.90
2017-12-13T22:48:09.670Z,4.90
2017-12-13T22:50:38.666Z,4.90
2017-12-13T22:53:06.908Z,4.80
2017-12-13T22:55:35.134Z,4.80
2017-12-13T22:58:03.391Z,4.90
2017-12-13T23:13:55.894Z,4.70
2017-12-13T23:16:24.392Z,4.70
2017-12-13T23:18:55.335Z,4.70
2017-12-13T23:21:27.300Z,4.70
2017-12-13T23:23:57.267Z,4.70
2017-12-13T23:26:26.595Z,4.80
2017-12-13T23:28:55.615Z,4.90
2017-12-13T23:31:23.876Z,4.80
2017-12-13T23:33:53.257Z,4.80
2017-12-13T23:36:22.278Z,4.90
2017-12-13T23:38:50.574Z,4.90
2017-12-13T23:41:18.828Z,4.90
2017-12-13T23:43:47.104Z,4.90
2017-12-13T23:46:15.388Z,5.00
2017-12-13T23:48:44.414Z,5.00
2017-12-13T23:51:14.279Z,5.00
2017-12-13T23:53:42.772Z,4.90
2017-12-13T23:56:14.859Z,5.00
2017-12-13T23:58:43.147Z,5.10
